Terminal Aerodrome Forecast
Issued by NWS Wilmington, OH

Current Version | Previous Version | Graphics & Text | Print | Product List | Glossary On
Versions: 1 2 3 4 5 6 7 8 9 10 11 12 13 14 15 16 17
000
FTUS41 KILN 260500
TAFDAY
TAF
KDAY 260532Z 2606/2706 16006KT P6SM BKN250
     FM260900 17004KT 4SM BR SCT250
     FM261300 17004KT P6SM SCT250
     FM261500 20005KT P6SM SCT035 SCT250
     FM262300 24005KT P6SM SCT250=

USA.gov is the U.S. government's official web portal to all federal, state and local government web resources and services.